Time;durP1;ratioP1;P1;durP2;ratioP2;P2;SDS_P1;SDS_P2;PMS_P1;PMS_P2;Temp;Humidity;BMP_temperature;BMP_pressure;BME280_temperature;BME280_humidity;BME280_pressure;Samples;Min_cycle;Max_cycle;Signal;HPM_P1;HPM_P2
2022/01/29 00:01:11;;;;;;;30.73;8.27;;;6.30;85.80;;;;;;5038136;28;20342;-73
2022/01/29 00:03:37;;;;;;;28.15;8.27;;;6.30;85.90;;;;;;5066841;28;20584;-73
2022/01/29 00:06:04;;;;;;;25.90;7.50;;;6.30;85.80;;;;;;5056023;28;20037;-73
2022/01/29 00:08:30;;;;;;;32.00;9.07;;;6.30;85.70;;;;;;5052293;28;20111;-73
2022/01/29 00:11:02;;;;;;;30.77;8.68;;;6.30;85.70;;;;;;5075980;28;20054;-73
2022/01/29 00:13:28;;;;;;;26.52;7.60;;;6.30;85.50;;;;;;5066505;28;20048;-73
2022/01/29 00:15:54;;;;;;;33.03;8.47;;;6.40;85.40;;;;;;5030775;28;20055;-73
2022/01/29 00:18:20;;;;;;;20.93;7.83;;;6.40;85.30;;;;;;5070059;28;20704;-73
2022/01/29 00:20:45;;;;;;;23.23;8.10;;;6.40;85.50;;;;;;5041967;28;20040;-73
2022/01/29 00:23:11;;;;;;;30.27;8.10;;;6.40;85.30;;;;;;5059460;28;20048;-73
2022/01/29 00:25:37;;;;;;;23.07;7.60;;;6.40;85.40;;;;;;5075997;28;20492;-73
2022/01/29 00:28:03;;;;;;;27.63;7.23;;;6.40;85.30;;;;;;5059336;28;20469;-73
2022/01/29 00:30:38;;;;;;;30.80;7.93;;;6.40;85.30;;;;;;5076371;28;20512;-73
2022/01/29 00:33:03;;;;;;;30.95;8.50;;;6.40;85.20;;;;;;5046952;28;20128;-73
2022/01/29 00:35:29;;;;;;;35.43;9.27;;;6.40;85.00;;;;;;5070954;28;20064;-73
2022/01/29 00:37:55;;;;;;;25.57;8.23;;;6.50;85.10;;;;;;5048928;28;20040;-73
2022/01/29 00:40:21;;;;;;;22.53;7.17;;;6.50;85.10;;;;;;5057320;28;20028;-73
2022/01/29 00:42:48;;;;;;;28.88;8.25;;;6.50;85.10;;;;;;5051020;28;20562;-73
2022/01/29 00:45:15;;;;;;;21.33;7.68;;;6.50;85.10;;;;;;5064282;28;20036;-73
2022/01/29 00:47:40;;;;;;;25.23;7.85;;;6.50;85.10;;;;;;5046982;28;20119;-73
2022/01/29 00:50:08;;;;;;;24.87;8.43;;;6.50;85.10;;;;;;5053173;28;20086;-73
2022/01/29 00:52:34;;;;;;;25.60;8.60;;;6.50;85.20;;;;;;5049311;28;20033;-73
2022/01/29 00:54:59;;;;;;;26.57;7.90;;;6.50;85.10;;;;;;5039051;28;20036;-73
2022/01/29 00:57:28;;;;;;;26.33;7.63;;;6.50;85.10;;;;;;5073359;28;20040;-73
2022/01/29 00:59:54;;;;;;;21.90;7.57;;;6.50;85.30;;;;;;5060525;28;20074;-73
2022/01/29 01:02:20;;;;;;;33.13;8.00;;;6.50;85.20;;;;;;5068843;28;20404;-73
2022/01/29 01:04:47;;;;;;;24.50;8.57;;;6.50;85.20;;;;;;5073313;28;20037;-73
2022/01/29 01:07:12;;;;;;;24.90;7.75;;;6.50;85.30;;;;;;5038303;28;20123;-73
2022/01/29 01:09:38;;;;;;;26.73;8.30;;;6.50;85.20;;;;;;5066213;28;20085;-73
2022/01/29 01:12:05;;;;;;;26.57;8.13;;;6.50;85.30;;;;;;5052702;28;20047;-73
2022/01/29 01:14:30;;;;;;;24.95;8.73;;;6.60;85.20;;;;;;5075701;28;20046;-73
2022/01/29 01:16:56;;;;;;;20.57;7.80;;;6.60;85.10;;;;;;5043554;28;20131;-73
2022/01/29 01:19:25;;;;;;;28.23;8.77;;;6.70;85.00;;;;;;5031436;28;20040;-73
2022/01/29 01:21:55;;;;;;;26.25;7.63;;;6.70;85.00;;;;;;5059683;28;20067;-73
2022/01/29 01:24:22;;;;;;;22.67;7.25;;;6.70;84.90;;;;;;5063879;28;20038;-73
2022/01/29 01:26:49;;;;;;;25.02;7.97;;;6.80;84.80;;;;;;5045133;28;20047;-73
2022/01/29 01:29:15;;;;;;;26.77;8.32;;;6.80;84.70;;;;;;5067564;28;20071;-73
2022/01/29 01:31:44;;;;;;;25.13;7.88;;;6.80;84.80;;;;;;5045420;28;20223;-73
2022/01/29 01:34:10;;;;;;;29.85;8.18;;;6.80;84.70;;;;;;5064174;28;20048;-73
2022/01/29 01:36:43;;;;;;;22.75;7.80;;;6.80;84.80;;;;;;5048550;28;20051;-73
2022/01/29 01:39:11;;;;;;;27.55;8.45;;;6.80;84.80;;;;;;5060831;28;20047;-73
2022/01/29 01:41:41;;;;;;;25.05;8.00;;;6.80;84.90;;;;;;5070939;28;20081;-73
2022/01/29 01:44:11;;;;;;;29.17;8.18;;;6.80;85.00;;;;;;5036310;28;20426;-73
2022/01/29 01:46:37;;;;;;;23.98;8.73;;;6.90;85.00;;;;;;5049531;28;20036;-73
2022/01/29 01:49:02;;;;;;;29.10;8.10;;;6.90;85.10;;;;;;5049208;28;20036;-73
2022/01/29 01:51:29;;;;;;;29.47;9.47;;;6.90;85.00;;;;;;5039693;28;20500;-73
2022/01/29 01:53:55;;;;;;;38.65;11.18;;;7.00;85.00;;;;;;5041675;28;20044;-73
2022/01/29 01:56:21;;;;;;;29.80;10.43;;;7.00;85.20;;;;;;5052721;28;20099;-74
2022/01/29 01:58:47;;;;;;;29.40;10.80;;;7.00;85.20;;;;;;5037305;28;20032;-74
2022/01/29 02:01:13;;;;;;;32.42;11.82;;;7.10;85.30;;;;;;5053170;28;20549;-74
2022/01/29 02:03:39;;;;;;;36.83;11.30;;;7.10;85.30;;;;;;5058606;28;20048;-74
2022/01/29 02:06:05;;;;;;;30.67;10.47;;;7.10;85.30;;;;;;5052505;28;20051;-73
2022/01/29 02:08:31;;;;;;;31.30;10.85;;;7.10;85.20;;;;;;5067272;28;20538;-73
2022/01/29 02:11:05;;;;;;;31.27;11.77;;;7.20;85.20;;;;;;5054782;28;20044;-73
2022/01/29 02:13:31;;;;;;;32.85;12.43;;;7.20;85.40;;;;;;5039841;28;20532;-73
2022/01/29 02:15:57;;;;;;;34.20;12.75;;;7.20;85.30;;;;;;5030858;28;20078;-73
2022/01/29 02:18:23;;;;;;;28.42;12.30;;;7.20;85.20;;;;;;5045145;28;20083;-73
2022/01/29 02:20:49;;;;;;;26.90;12.00;;;7.20;85.20;;;;;;5063142;28;20040;-73
2022/01/29 02:23:17;;;;;;;31.33;12.32;;;7.20;85.10;;;;;;5052264;28;20047;-73
2022/01/29 02:25:45;;;;;;;24.90;11.98;;;7.20;85.10;;;;;;5066694;28;20075;-73
2022/01/29 02:28:17;;;;;;;33.60;12.32;;;7.20;85.10;;;;;;5068090;28;20040;-73
2022/01/29 02:30:46;;;;;;;34.92;13.10;;;7.20;85.20;;;;;;5050325;28;20503;-73
2022/01/29 02:33:14;;;;;;;32.90;12.63;;;7.20;84.90;;;;;;5057685;28;20037;-73
2022/01/29 02:35:44;;;;;;;29.67;12.00;;;7.20;84.90;;;;;;5066636;28;20041;-73
2022/01/29 02:38:12;;;;;;;30.88;12.27;;;7.20;84.80;;;;;;5048955;28;20059;-73
2022/01/29 02:40:48;;;;;;;31.90;13.00;;;7.20;85.00;;;;;;5063189;28;20064;-73
2022/01/29 02:43:20;;;;;;;27.00;12.38;;;7.20;84.90;;;;;;5053106;28;20040;-74
2022/01/29 02:45:47;;;;;;;30.58;12.38;;;7.20;84.90;;;;;;5054666;28;20055;-74
2022/01/29 02:48:13;;;;;;;28.90;12.13;;;7.20;84.90;;;;;;5062359;28;20064;-74
2022/01/29 02:50:40;;;;;;;35.10;13.05;;;7.20;85.00;;;;;;5042934;28;20152;-73
2022/01/29 02:53:07;;;;;;;38.05;13.07;;;7.20;84.90;;;;;;5074186;28;20048;-74
2022/01/29 02:55:33;;;;;;;29.13;12.57;;;7.20;85.00;;;;;;5037536;28;20151;-73
2022/01/29 02:57:59;;;;;;;32.33;13.27;;;7.30;84.80;;;;;;5048425;28;20045;-74
2022/01/29 03:00:25;;;;;;;30.15;11.95;;;7.30;84.80;;;;;;5078251;28;20044;-73
2022/01/29 03:02:51;;;;;;;31.50;11.82;;;7.30;84.80;;;;;;5057395;28;20040;-73
2022/01/29 03:05:17;;;;;;;36.90;13.20;;;7.30;84.80;;;;;;5047405;28;20374;-73
2022/01/29 03:07:43;;;;;;;31.70;13.00;;;7.30;84.70;;;;;;5049766;28;20040;-73
2022/01/29 03:10:08;;;;;;;34.17;14.20;;;7.30;84.70;;;;;;5045920;28;20546;-73
2022/01/29 03:12:37;;;;;;;32.20;13.67;;;7.30;84.80;;;;;;5049899;28;20329;-73
2022/01/29 03:15:04;;;;;;;30.80;12.82;;;7.30;84.80;;;;;;5071137;28;20051;-74
2022/01/29 03:17:30;;;;;;;33.40;13.70;;;7.20;84.90;;;;;;5058485;28;20055;-73
2022/01/29 03:19:55;;;;;;;35.03;13.30;;;7.30;84.90;;;;;;5062646;28;20461;-73
2022/01/29 03:22:21;;;;;;;38.60;14.20;;;7.20;85.10;;;;;;5022847;28;20036;-73
2022/01/29 03:24:47;;;;;;;33.97;13.10;;;7.30;85.10;;;;;;5069432;28;20049;-73
2022/01/29 03:27:12;;;;;;;36.40;13.63;;;7.30;85.20;;;;;;5055582;28;20131;-73
2022/01/29 03:29:38;;;;;;;36.27;14.37;;;7.30;85.00;;;;;;5046275;28;20032;-73
2022/01/29 03:32:04;;;;;;;34.80;13.53;;;7.30;85.10;;;;;;5069944;28;20039;-74
2022/01/29 03:34:30;;;;;;;34.77;13.77;;;7.30;85.30;;;;;;5040089;28;20108;-73
2022/01/29 03:36:56;;;;;;;43.05;14.40;;;7.30;85.20;;;;;;5049942;28;20287;-73
2022/01/29 03:39:26;;;;;;;30.92;14.10;;;7.30;85.20;;;;;;5059037;28;20047;-74
2022/01/29 03:41:52;;;;;;;33.13;14.43;;;7.40;85.20;;;;;;5064406;28;20122;-74
2022/01/29 03:44:20;;;;;;;32.78;14.30;;;7.40;85.10;;;;;;5055996;28;20072;-74
2022/01/29 03:46:47;;;;;;;31.15;13.95;;;7.40;85.20;;;;;;5053528;28;20047;-73
2022/01/29 03:49:13;;;;;;;35.72;15.00;;;7.40;85.20;;;;;;5053690;28;20523;-73
2022/01/29 03:51:39;;;;;;;36.17;14.25;;;7.40;85.30;;;;;;5066153;28;20536;-73
2022/01/29 03:54:05;;;;;;;36.40;13.93;;;7.40;85.20;;;;;;5070083;28;20106;-74
2022/01/29 03:56:30;;;;;;;34.47;14.33;;;7.40;85.40;;;;;;5046507;28;20496;-73
2022/01/29 03:58:56;;;;;;;32.33;14.20;;;7.40;85.10;;;;;;5073014;28;20044;-74
2022/01/29 04:01:25;;;;;;;37.43;14.33;;;7.40;85.30;;;;;;5055958;28;20354;-74
2022/01/29 04:03:50;;;;;;;32.95;13.98;;;7.40;85.30;;;;;;5056447;28;20040;-73
2022/01/29 04:06:16;;;;;;;36.30;14.57;;;7.40;85.40;;;;;;5090320;28;20494;-73
2022/01/29 04:08:43;;;;;;;33.30;13.57;;;7.40;85.40;;;;;;5046008;28;20097;-73
2022/01/29 04:11:12;;;;;;;38.30;13.60;;;7.40;85.30;;;;;;5064309;28;20044;-73
2022/01/29 04:13:41;;;;;;;33.28;14.70;;;7.40;85.40;;;;;;5046466;28;20103;-73
2022/01/29 04:16:07;;;;;;;28.58;13.98;;;7.50;85.50;;;;;;5046759;28;20051;-74
2022/01/29 04:18:33;;;;;;;33.07;14.73;;;7.50;85.40;;;;;;5061280;28;20052;-73
2022/01/29 04:20:59;;;;;;;30.67;13.07;;;7.50;85.30;;;;;;5052172;28;20485;-73
2022/01/29 04:23:25;;;;;;;26.23;13.23;;;7.50;85.40;;;;;;5051275;28;20051;-73
2022/01/29 04:25:52;;;;;;;34.90;14.90;;;7.50;85.30;;;;;;5036949;28;20072;-73
2022/01/29 04:28:21;;;;;;;30.70;13.13;;;7.50;85.30;;;;;;5069289;28;20071;-73
2022/01/29 04:30:53;;;;;;;37.33;13.85;;;7.50;85.20;;;;;;5041257;28;20546;-73
2022/01/29 04:35:44;;;;;;;27.73;12.70;;;7.60;85.20;;;;;;5056466;28;20041;-73
2022/01/29 04:38:10;;;;;;;29.92;12.95;;;7.60;85.10;;;;;;5061912;28;20083;-73
2022/01/29 04:40:37;;;;;;;28.25;13.65;;;7.60;85.10;;;;;;5066339;28;20539;-73
2022/01/29 04:43:04;;;;;;;32.97;13.85;;;7.60;85.20;;;;;;5073617;28;20398;-73
2022/01/29 04:45:31;;;;;;;31.63;13.43;;;7.60;85.00;;;;;;5059990;28;20036;-73
2022/01/29 04:47:56;;;;;;;25.40;12.85;;;7.60;85.00;;;;;;5073872;28;20036;-73
2022/01/29 04:50:22;;;;;;;26.23;12.83;;;7.70;85.00;;;;;;5070172;28;20040;-74
2022/01/29 04:52:48;;;;;;;26.50;13.15;;;7.70;85.00;;;;;;5050121;28;20035;-73
2022/01/29 04:55:14;;;;;;;32.30;13.80;;;7.80;84.70;;;;;;5037636;28;20044;-73
2022/01/29 04:57:41;;;;;;;28.90;13.73;;;7.80;84.70;;;;;;5064385;28;20113;-73
2022/01/29 05:00:11;;;;;;;25.92;11.95;;;7.80;84.60;;;;;;5069503;28;20066;-73
2022/01/29 05:02:38;;;;;;;28.15;13.50;;;7.80;84.60;;;;;;5055653;28;20365;-74
2022/01/29 05:05:05;;;;;;;24.90;12.25;;;7.80;84.80;;;;;;5068359;28;20051;-73
2022/01/29 05:07:31;;;;;;;25.65;12.48;;;7.80;84.90;;;;;;5052128;28;20092;-73
2022/01/29 05:09:57;;;;;;;23.67;12.85;;;7.80;84.60;;;;;;5078631;28;20040;-73
2022/01/29 05:12:28;;;;;;;22.77;12.60;;;7.80;84.70;;;;;;5046891;28;20123;-73
2022/01/29 05:28:03;;;;;;;25.30;12.30;;;7.90;84.30;;;;;;5074172;28;20055;-73
2022/01/29 05:30:29;;;;;;;24.38;13.07;;;8.00;84.40;;;;;;5049451;28;20059;-74
2022/01/29 05:32:55;;;;;;;27.80;12.70;;;7.90;84.20;;;;;;5047775;28;20488;-74
2022/01/29 05:35:21;;;;;;;26.37;12.37;;;7.90;84.30;;;;;;5059142;28;20051;-73
2022/01/29 05:37:49;;;;;;;23.53;11.83;;;7.90;84.30;;;;;;5061313;28;20103;-74
2022/01/29 05:40:15;;;;;;;24.85;12.95;;;7.90;84.20;;;;;;5052209;28;20122;-73
2022/01/29 05:42:41;;;;;;;26.13;13.03;;;7.90;84.00;;;;;;5056660;28;20068;-73
2022/01/29 05:45:07;;;;;;;20.93;12.23;;;8.00;84.10;;;;;;5053844;28;20048;-74
2022/01/29 05:47:35;;;;;;;22.25;12.05;;;7.90;84.10;;;;;;5045251;28;20071;-74
2022/01/29 05:50:01;;;;;;;24.55;11.48;;;7.90;84.30;;;;;;5074540;28;20036;-74
2022/01/29 05:52:27;;;;;;;25.05;11.85;;;7.90;84.30;;;;;;5048106;28;20040;-73
2022/01/29 05:54:52;;;;;;;26.30;12.43;;;7.90;84.30;;;;;;5052084;28;20044;-74
2022/01/29 05:57:18;;;;;;;27.83;11.83;;;8.00;84.10;;;;;;5086595;28;20498;-74
2022/01/29 05:59:44;;;;;;;25.60;11.60;;;8.00;84.20;;;;;;5072303;28;20043;-73
2022/01/29 06:02:10;;;;;;;25.37;11.90;;;8.00;84.20;;;;;;5055124;28;20066;-73
2022/01/29 06:04:36;;;;;;;23.27;10.57;;;8.00;84.10;;;;;;5046993;28;20051;-74
2022/01/29 06:07:02;;;;;;;22.23;10.73;;;8.00;84.20;;;;;;5092425;28;20055;-73
2022/01/29 06:09:27;;;;;;;24.50;11.17;;;8.00;83.90;;;;;;5045511;28;20028;-74
2022/01/29 06:11:53;;;;;;;21.37;11.00;;;8.00;83.80;;;;;;5058951;28;20098;-74
2022/01/29 06:14:19;;;;;;;26.33;11.87;;;8.00;83.80;;;;;;5038512;28;20712;-74
2022/01/29 06:16:45;;;;;;;27.23;11.13;;;8.00;83.80;;;;;;5052278;28;20142;-74
2022/01/29 06:19:10;;;;;;;27.20;11.90;;;8.00;83.70;;;;;;5075852;28;20048;-74
2022/01/29 06:21:36;;;;;;;23.20;11.70;;;8.00;83.90;;;;;;5071213;28;20354;-74
2022/01/29 06:24:02;;;;;;;21.23;11.80;;;8.00;83.80;;;;;;5068582;28;20098;-74
2022/01/29 06:26:28;;;;;;;23.58;11.23;;;8.00;83.80;;;;;;5075480;28;20240;-74
2022/01/29 06:28:54;;;;;;;19.43;10.03;;;8.00;83.90;;;;;;5056900;28;20047;-73
2022/01/29 06:31:20;;;;;;;21.37;10.40;;;8.00;83.80;;;;;;5047232;28;20286;-73
2022/01/29 06:33:46;;;;;;;17.90;9.97;;;8.00;83.80;;;;;;5046765;28;20036;-73
2022/01/29 06:36:12;;;;;;;23.65;10.77;;;8.00;83.70;;;;;;5067929;28;20047;-73
2022/01/29 06:38:38;;;;;;;21.37;10.20;;;8.00;83.70;;;;;;5069147;28;20032;-73
2022/01/29 06:41:04;;;;;;;23.67;11.97;;;8.00;83.70;;;;;;5054466;28;20296;-73
2022/01/29 06:43:30;;;;;;;22.60;11.38;;;8.00;83.70;;;;;;5057036;28;20047;-73
2022/01/29 06:45:56;;;;;;;19.30;9.55;;;8.00;83.70;;;;;;5049357;28;20040;-73
2022/01/29 06:48:22;;;;;;;21.60;10.43;;;8.00;83.70;;;;;;5051942;28;20052;-74
2022/01/29 06:50:48;;;;;;;21.25;10.55;;;8.00;83.70;;;;;;5068186;28;20068;-74
2022/01/29 06:53:13;;;;;;;21.03;11.50;;;8.00;83.60;;;;;;5042862;28;20036;-74
2022/01/29 06:55:39;;;;;;;22.90;9.63;;;8.00;83.60;;;;;;5061785;28;20111;-74
2022/01/29 06:58:07;;;;;;;20.93;9.83;;;8.00;83.70;;;;;;5063714;28;20044;-73
2022/01/29 07:00:33;;;;;;;21.27;10.75;;;8.00;83.70;;;;;;5056980;28;20032;-73
2022/01/29 07:02:59;;;;;;;22.97;10.17;;;7.90;83.70;;;;;;5056313;28;20511;-74
2022/01/29 07:05:25;;;;;;;23.53;9.97;;;7.90;83.80;;;;;;5050626;28;20061;-73
2022/01/29 07:07:51;;;;;;;19.00;9.57;;;7.90;83.80;;;;;;5058957;28;20035;-73
2022/01/29 07:10:17;;;;;;;20.98;10.07;;;7.90;84.00;;;;;;5060937;28;20047;-74
2022/01/29 07:12:43;;;;;;;19.80;9.68;;;7.90;84.00;;;;;;5028854;28;20029;-74
2022/01/29 07:15:11;;;;;;;23.40;9.70;;;7.90;84.10;;;;;;5053548;28;20055;-73
2022/01/29 07:17:37;;;;;;;26.40;9.32;;;7.90;84.00;;;;;;5045979;28;20060;-74
2022/01/29 07:20:04;;;;;;;24.27;9.60;;;7.90;84.00;;;;;;5063021;28;20480;-74
2022/01/29 07:22:30;;;;;;;19.80;8.98;;;7.90;84.00;;;;;;5058180;28;20059;-74
2022/01/29 07:24:56;;;;;;;21.10;9.77;;;7.90;83.90;;;;;;5046667;28;20040;-74
2022/01/29 07:27:21;;;;;;;15.53;8.80;;;8.00;83.90;;;;;;5052287;28;20428;-74
2022/01/29 07:29:47;;;;;;;20.97;8.83;;;7.90;83.80;;;;;;5057547;28;20056;-73
2022/01/29 07:32:14;;;;;;;18.90;8.50;;;8.00;83.90;;;;;;5028645;28;20511;-73
2022/01/29 07:34:39;;;;;;;16.63;8.27;;;8.00;83.90;;;;;;5037477;28;20036;-74
2022/01/29 07:37:05;;;;;;;19.23;9.33;;;8.00;83.90;;;;;;5039295;28;20130;-74
2022/01/29 07:39:31;;;;;;;18.13;8.60;;;8.00;83.80;;;;;;5069907;28;20024;-74
2022/01/29 07:41:58;;;;;;;18.08;8.65;;;8.00;83.70;;;;;;5062831;28;20028;-74
2022/01/29 07:44:24;;;;;;;20.60;9.65;;;8.00;83.80;;;;;;5055947;28;20035;-74
2022/01/29 07:46:50;;;;;;;16.83;8.15;;;8.00;83.70;;;;;;5044817;28;20110;-74
2022/01/29 07:49:16;;;;;;;15.68;8.00;;;8.00;83.80;;;;;;5067026;28;20095;-73
2022/01/29 07:51:42;;;;;;;18.37;8.40;;;8.00;83.80;;;;;;5055983;28;20039;-74
2022/01/29 07:54:08;;;;;;;19.90;8.33;;;8.00;83.80;;;;;;5061878;28;20040;-73
2022/01/29 07:56:34;;;;;;;18.40;8.10;;;8.00;83.80;;;;;;5050806;28;20127;-73
2022/01/29 07:59:00;;;;;;;18.27;7.97;;;8.00;83.90;;;;;;5056704;28;20031;-73
2022/01/29 08:01:26;;;;;;;19.73;7.65;;;8.00;83.90;;;;;;5041826;28;20032;-73
2022/01/29 08:03:53;;;;;;;19.93;7.43;;;8.00;83.90;;;;;;5040364;28;20361;-73
2022/01/29 08:06:22;;;;;;;19.33;7.30;;;8.10;83.90;;;;;;5057178;28;20455;-73
2022/01/29 08:08:48;;;;;;;18.58;7.47;;;8.10;83.80;;;;;;5073121;28;20044;-73
2022/01/29 08:11:15;;;;;;;19.02;6.75;;;8.10;83.80;;;;;;5066939;28;20051;-73
2022/01/29 08:13:41;;;;;;;21.10;7.53;;;8.10;83.80;;;;;;5069345;28;20524;-74
2022/01/29 08:16:07;;;;;;;15.53;6.93;;;8.10;83.60;;;;;;5054944;28;20082;-73
2022/01/29 08:18:32;;;;;;;20.42;6.80;;;8.10;83.80;;;;;;5044182;28;20467;-74
2022/01/29 08:20:58;;;;;;;16.43;6.80;;;8.10;83.60;;;;;;5054046;28;20036;-73
2022/01/29 08:23:24;;;;;;;22.23;6.63;;;8.10;83.70;;;;;;5070725;28;20040;-73
2022/01/29 08:25:50;;;;;;;17.13;6.30;;;8.10;83.60;;;;;;5080540;28;20051;-74
2022/01/29 08:28:16;;;;;;;12.53;5.53;;;8.20;83.60;;;;;;5075767;28;20033;-73
2022/01/29 08:30:42;;;;;;;18.33;6.28;;;8.20;83.50;;;;;;5064679;28;20043;-73
2022/01/29 08:33:08;;;;;;;19.98;5.38;;;8.20;83.40;;;;;;5036008;28;20052;-73
2022/01/29 08:35:34;;;;;;;15.00;6.03;;;8.30;83.20;;;;;;5051866;28;20040;-75
2022/01/29 08:38:00;;;;;;;17.05;5.72;;;8.30;83.10;;;;;;5042082;28;20042;-74
2022/01/29 08:40:27;;;;;;;16.08;5.30;;;8.30;83.20;;;;;;5070610;28;20407;-73
2022/01/29 08:42:54;;;;;;;12.63;4.68;;;8.30;83.10;;;;;;5048956;28;20041;-73
2022/01/29 08:45:20;;;;;;;16.15;6.38;;;8.30;83.20;;;;;;5074360;28;20056;-73
2022/01/29 08:47:46;;;;;;;14.40;5.40;;;8.40;83.10;;;;;;5050306;28;20115;-73
2022/01/29 08:50:13;;;;;;;20.42;5.90;;;8.40;83.10;;;;;;5052956;28;20043;-73
2022/01/29 08:52:39;;;;;;;15.90;5.53;;;8.40;83.10;;;;;;5054146;28;20065;-74
2022/01/29 08:55:07;;;;;;;15.77;5.00;;;8.50;82.80;;;;;;5048787;28;20487;-73
2022/01/29 08:57:33;;;;;;;15.32;5.20;;;8.50;82.80;;;;;;5073758;28;20032;-73
2022/01/29 09:00:00;;;;;;;17.23;5.13;;;8.50;82.90;;;;;;5061239;28;20044;-73
2022/01/29 09:02:26;;;;;;;11.60;4.50;;;8.50;83.10;;;;;;5059904;28;20047;-73
2022/01/29 09:04:55;;;;;;;15.75;4.72;;;8.50;82.90;;;;;;5066422;28;20408;-73
2022/01/29 09:07:21;;;;;;;15.18;4.78;;;8.50;82.80;;;;;;5075602;28;20174;-73
2022/01/29 09:09:47;;;;;;;16.00;4.13;;;8.50;82.90;;;;;;5028314;28;20033;-73
2022/01/29 09:12:13;;;;;;;11.68;3.85;;;8.50;82.80;;;;;;5055918;28;20067;-73
2022/01/29 09:14:39;;;;;;;13.85;4.43;;;8.50;82.80;;;;;;5043516;28;20257;-73
2022/01/29 09:17:05;;;;;;;11.52;4.13;;;8.60;82.70;;;;;;5069109;28;20040;-73
2022/01/29 09:19:32;;;;;;;10.82;3.50;;;8.60;82.80;;;;;;5053796;28;20067;-73
2022/01/29 09:21:57;;;;;;;11.50;4.10;;;8.70;82.70;;;;;;5051837;28;20040;-74
2022/01/29 09:24:23;;;;;;;14.90;3.47;;;8.70;82.40;;;;;;5069475;28;20032;-74
2022/01/29 09:26:49;;;;;;;12.20;3.50;;;8.80;82.50;;;;;;5048821;28;20092;-74
2022/01/29 09:29:15;;;;;;;12.67;3.47;;;8.80;82.20;;;;;;5049126;28;20035;-74
2022/01/29 09:31:41;;;;;;;13.30;3.42;;;8.80;82.20;;;;;;5066910;28;20092;-73
2022/01/29 09:34:07;;;;;;;11.93;3.73;;;8.90;82.20;;;;;;5055568;28;20114;-74
2022/01/29 09:36:32;;;;;;;11.37;3.10;;;8.90;82.00;;;;;;5066621;28;20407;-73
2022/01/29 09:38:58;;;;;;;13.43;3.40;;;8.90;82.20;;;;;;5052600;28;20289;-74
2022/01/29 09:41:26;;;;;;;8.63;2.60;;;8.90;81.80;;;;;;5056722;28;20064;-73
2022/01/29 09:43:52;;;;;;;16.85;3.15;;;9.00;81.60;;;;;;5066717;28;20048;-73
2022/01/29 09:46:18;;;;;;;9.52;2.83;;;9.00;81.40;;;;;;5051375;28;20048;-74
2022/01/29 09:48:45;;;;;;;14.77;2.70;;;9.00;81.40;;;;;;5060058;28;20063;-73
2022/01/29 09:51:14;;;;;;;12.10;2.40;;;9.00;81.60;;;;;;5054932;28;20287;-73
2022/01/29 09:53:43;;;;;;;15.55;2.80;;;9.00;81.50;;;;;;5079994;28;20047;-73
2022/01/29 09:56:13;;;;;;;8.07;2.83;;;9.00;81.40;;;;;;5063277;28;20044;-74
2022/01/29 09:58:40;;;;;;;13.95;2.65;;;9.00;81.30;;;;;;5045628;28;20054;-73
2022/01/29 10:01:06;;;;;;;13.60;2.50;;;9.10;81.30;;;;;;5063325;28;20045;-75
2022/01/29 10:03:32;;;;;;;11.63;2.80;;;9.10;81.00;;;;;;5063504;28;20079;-74
2022/01/29 10:05:58;;;;;;;9.43;2.47;;;9.20;80.90;;;;;;5055659;28;20083;-73
2022/01/29 10:08:24;;;;;;;7.45;2.63;;;9.20;80.80;;;;;;5066758;28;20057;-73
2022/01/29 10:10:55;;;;;;;9.48;2.70;;;9.30;80.50;;;;;;5076133;28;20068;-74
2022/01/29 10:13:34;;;;;;;10.35;2.50;;;9.30;80.30;;;;;;5072865;28;20028;-73
2022/01/29 10:16:14;;;;;;;6.18;1.90;;;9.40;80.00;;;;;;5056454;28;20400;-73
2022/01/29 10:18:42;;;;;;;8.88;1.90;;;9.40;80.10;;;;;;5089260;28;20052;-73
2022/01/29 10:21:09;;;;;;;14.95;2.60;;;9.50;79.80;;;;;;5050026;28;20132;-73
2022/01/29 10:23:35;;;;;;;10.40;2.00;;;9.50;79.80;;;;;;5073928;28;20035;-73
2022/01/29 10:26:01;;;;;;;11.70;2.20;;;9.60;79.50;;;;;;5060683;28;20046;-73
2022/01/29 10:28:27;;;;;;;14.90;2.78;;;9.60;79.50;;;;;;5068047;28;20044;-73
2022/01/29 10:31:05;;;;;;;10.63;2.25;;;9.70;79.30;;;;;;5058875;28;20490;-73
2022/01/29 10:33:39;;;;;;;18.52;2.85;;;9.60;79.20;;;;;;5070505;28;20039;-73
2022/01/29 10:36:07;;;;;;;9.48;1.88;;;9.60;79.00;;;;;;5049927;28;20040;-73
2022/01/29 10:38:55;;;;;;;11.65;2.60;;;9.60;79.20;;;;;;5071361;28;20036;-74
2022/01/29 10:41:30;;;;;;;10.32;2.13;;;9.60;78.80;;;;;;5075590;28;20045;-74
2022/01/29 10:44:12;;;;;;;15.13;2.20;;;9.60;79.10;;;;;;5044552;28;20455;-74
2022/01/29 10:46:50;;;;;;;9.65;2.05;;;9.60;79.10;;;;;;5075462;28;20067;-73
2022/01/29 10:49:21;;;;;;;12.35;2.28;;;9.70;78.80;;;;;;5060900;28;20045;-73
2022/01/29 10:52:08;;;;;;;11.02;2.30;;;9.70;78.80;;;;;;5075327;28;20052;-73
2022/01/29 10:54:42;;;;;;;11.40;2.65;;;9.80;78.20;;;;;;5072873;28;20040;-73
2022/01/29 10:57:15;;;;;;;5.75;1.75;;;9.90;78.90;;;;;;5060052;28;20041;-73
2022/01/29 10:59:49;;;;;;;11.55;2.05;;;9.90;78.00;;;;;;5045261;28;20040;-74
2022/01/29 11:02:16;;;;;;;8.50;2.28;;;9.90;78.30;;;;;;5069205;28;20032;-73
2022/01/29 11:04:43;;;;;;;8.85;1.85;;;9.90;77.90;;;;;;5041842;28;20037;-73
2022/01/29 11:07:18;;;;;;;9.00;2.00;;;9.80;78.30;;;;;;5053015;28;20036;-73
2022/01/29 11:09:47;;;;;;;10.07;1.90;;;9.80;77.30;;;;;;5063478;28;20112;-74
2022/01/29 11:12:18;;;;;;;9.50;2.08;;;9.80;77.00;;;;;;5060338;28;20488;-73
2022/01/29 11:14:45;;;;;;;11.48;2.00;;;9.80;77.10;;;;;;5046478;28;20044;-74
2022/01/29 11:17:12;;;;;;;11.13;1.73;;;9.80;76.90;;;;;;5072805;28;20057;-73
2022/01/29 11:19:40;;;;;;;10.77;1.52;;;9.80;76.80;;;;;;5052563;28;20263;-74
2022/01/29 11:22:07;;;;;;;11.63;1.60;;;9.90;77.30;;;;;;5043713;28;20040;-73
2022/01/29 11:24:35;;;;;;;9.80;1.50;;;10.00;77.20;;;;;;5054252;28;20120;-74
2022/01/29 11:27:02;;;;;;;11.38;2.13;;;10.10;76.60;;;;;;5037579;28;20049;-74
2022/01/29 11:29:36;;;;;;;7.15;2.25;;;10.20;76.30;;;;;;5034209;28;20092;-74
2022/01/29 11:32:20;;;;;;;10.68;2.30;;;10.20;75.40;;;;;;5038720;28;20726;-74
2022/01/29 11:35:05;;;;;;;9.20;1.83;;;10.20;75.50;;;;;;5052291;28;20037;-74
2022/01/29 11:37:49;;;;;;;9.10;1.27;;;10.30;75.50;;;;;;5068497;28;20032;-74
2022/01/29 11:40:24;;;;;;;10.43;2.55;;;10.30;75.60;;;;;;5075106;28;20089;-73
2022/01/29 11:42:53;;;;;;;11.93;2.17;;;10.40;75.40;;;;;;5060505;28;20040;-73
2022/01/29 11:45:51;;;;;;;7.95;1.52;;;10.40;75.40;;;;;;5051808;28;20047;-73
2022/01/29 11:48:27;;;;;;;8.53;1.50;;;10.40;75.30;;;;;;5080683;28;20091;-74
2022/01/29 11:51:05;;;;;;;7.85;1.58;;;10.50;75.10;;;;;;5064016;28;20271;-74
2022/01/29 11:53:46;;;;;;;10.70;1.70;;;10.60;75.60;;;;;;5028895;28;20079;-74
2022/01/29 11:56:36;;;;;;;15.38;2.08;;;10.50;74.40;;;;;;5046368;28;20362;-74
2022/01/29 11:59:20;;;;;;;9.10;1.73;;;10.40;74.70;;;;;;5038692;28;20690;-73
2022/01/29 12:01:55;;;;;;;11.25;1.83;;;10.40;74.50;;;;;;5049881;28;20040;-73
2022/01/29 12:04:23;;;;;;;9.43;1.48;;;10.40;74.90;;;;;;5039706;28;20049;-74
2022/01/29 12:07:14;;;;;;;8.63;1.50;;;10.30;75.30;;;;;;5058480;28;20174;-73
2022/01/29 12:09:52;;;;;;;8.27;1.42;;;10.40;75.30;;;;;;5043786;28;20045;-73
2022/01/29 12:12:27;;;;;;;13.20;2.40;;;10.40;75.20;;;;;;5043844;28;20036;-74
2022/01/29 12:15:23;;;;;;;9.03;1.90;;;10.50;75.10;;;;;;5070488;28;20044;-73
2022/01/29 12:17:58;;;;;;;9.23;1.50;;;10.50;75.80;;;;;;5060872;28;20303;-73
2022/01/29 12:20:26;;;;;;;15.65;2.13;;;10.50;75.40;;;;;;5043127;28;20280;-73
2022/01/29 12:23:00;;;;;;;10.30;1.70;;;10.50;75.40;;;;;;5052201;28;20041;-74
2022/01/29 12:25:27;;;;;;;11.98;1.80;;;10.50;75.60;;;;;;5053634;28;20076;-74
2022/01/29 12:27:56;;;;;;;10.53;1.80;;;10.50;74.80;;;;;;5038214;28;20093;-73
2022/01/29 12:30:33;;;;;;;10.45;2.38;;;10.60;75.20;;;;;;5056582;28;20643;-74
2022/01/29 12:33:11;;;;;;;11.17;1.77;;;10.60;74.40;;;;;;5072461;28;20090;-74
2022/01/29 12:35:39;;;;;;;11.63;2.50;;;10.60;75.30;;;;;;5059907;28;20295;-74
2022/01/29 12:38:07;;;;;;;10.70;2.03;;;10.70;75.30;;;;;;5066194;28;20319;-73
2022/01/29 12:40:38;;;;;;;15.77;2.40;;;10.70;75.40;;;;;;5047608;28;20306;-74
2022/01/29 12:43:21;;;;;;;11.25;1.90;;;10.60;75.30;;;;;;5067202;28;20048;-74
2022/01/29 12:45:48;;;;;;;14.97;1.50;;;10.50;75.30;;;;;;5044703;28;20041;-74
2022/01/29 12:48:14;;;;;;;10.82;1.73;;;10.40;75.90;;;;;;5052196;28;20579;-74
2022/01/29 12:50:42;;;;;;;10.52;2.10;;;10.30;76.10;;;;;;5041863;28;20041;-74
2022/01/29 12:53:17;;;;;;;9.20;1.90;;;10.30;75.80;;;;;;5043553;28;20033;-74
2022/01/29 12:55:43;;;;;;;12.38;1.50;;;10.20;75.60;;;;;;5062411;28;20290;-74
2022/01/29 12:58:09;;;;;;;12.48;2.10;;;10.20;76.20;;;;;;5055715;28;20048;-74
2022/01/29 13:00:36;;;;;;;12.30;1.77;;;10.20;75.80;;;;;;5047964;28;20047;-74
2022/01/29 13:03:09;;;;;;;8.90;1.50;;;10.20;76.30;;;;;;5077252;28;20400;-74